Latest Coastal Weather Observations for Parndana

IDS60701

Issued at 2:41 am CST Wednesday 28 June 2017 (issued every 10 minutes, with the page automatically refreshed every 10 minutes)

About coastal observations | Map of coastal stations | Coastal observations for SA | Marine services | Other Formats
Station Details ID: 022843 Name: PARNDANA CFS AWS Lat: -35.79 Lon: 137.25 Height: 165.0 m
Data from the previous 72 hours. | See also: Recent months at Parndana
Date/Time
CST
Temp
°C
Wind Pressure Rain since
9am
mm
Weather Cloud Vis
km
Sea
Height
m
Swell
Dir  Spd
kts
Gust
kts
hPa Trend Height
m
Period
s
Dir
28/02:30am 5.7 NNW 4 5 - - 0.4 - - - - - - -
28/02:00am 6.5 NW 6 6 - - 0.4 - - - - - - -
28/01:30am 6.9 WNW 5 6 - - 0.4 - - - - - - -
28/01:00am 6.9 W 6 8 - - 0.4 - - - - - - -
28/12:30am 7.5 NW 4 4 - - 0.4 - - - - - - -
28/12:00am 7.2 NW 4 4 - - 0.4 - - - - - - -
 
Date/Time
CST
Temp
°C
Wind Pressure Rain since
9am
mm
Weather Cloud Vis
km
Sea
Height
m
Swell
Dir  Spd
kts
Gust
kts
hPa Trend Height
m
Period
s
Dir
27/11:30pm 8.0 WNW 3 4 - - 0.4 - - - - - - -
27/11:00pm 7.3 WNW 5 6 - - 0.4 - - - - - - -
27/10:30pm 7.5 W 6 6 - - 0.4 - - - - - - -
27/10:00pm 9.0 WNW 7 8 - - 0.4 - - - - - - -
27/09:30pm 10.1 W 5 5 - - 0.4 - - - - - - -
27/09:00pm 10.4 WNW 6 7 - - 0.4 - - - - - - -
27/08:30pm 10.1 NW 4 5 - - 0.4 - - - - - - -
27/08:00pm 10.2 NW 4 5 - - 0.4 - - - - - - -
27/07:30pm 10.1 WNW 4 8 - - 0.4 - - - - - - -
27/07:00pm 10.0 NNW 5 5 - - 0.2 - - - - - - -
27/06:30pm 10.2 NW 4 5 - - 0.2 - - - - - - -
27/06:00pm 10.5 NW 5 6 - - 0.2 - - - - - - -
27/05:30pm 10.8 WNW 4 5 - - 0.2 - - - - - - -
27/05:00pm 12.1 WNW 6 8 - - 0.2 - - - - - - -
27/04:30pm 12.0 WNW 6 7 - - 0.2 - - - - - - -
27/04:00pm 12.4 WNW 7 10 - - 0.2 - - - - - - -
27/03:30pm 13.5 WNW 8 11 - - 0.2 - - - - - - -
27/03:00pm 12.5 W 9 13 - - 0.2 - - - - - - -
27/02:30pm 14.4 WNW 11 15 - - 0.2 - - - - - - -
27/02:00pm 14.5 NW 9 11 - - 0.2 - - - - - - -
27/01:30pm 13.6 NNW 5 7 - - 0.2 - - - - - - -
27/01:00pm 12.1 N 6 8 - - 0.2 - - - - - - -
27/12:30pm 12.2 NNW 6 7 - - 0.2 - - - - - - -
27/12:00pm 11.6 NNW 6 10 - - 0.2 Recent precip. - - - - - -
27/11:30am 11.1 NW 10 13 - - 0.0 - - - - - - -
27/11:00am 13.0 NNW 5 8 - - 0.0 - - - - - - -
27/10:30am 11.5 NNW 5 9 - - 0.0 - - - - - - -
27/10:00am 10.8 NNW 5 7 - - 0.0 - - - - - - -
27/09:30am 10.8 WNW 6 7 - - 0.0 - - - - - - -
27/09:00am 11.1 WNW 4 6 - - 1.4 - - - - - - -
27/08:30am 9.7 NW 4 6 - - 1.4 - - - - - - -
27/08:00am 8.8 WNW 6 8 - - 1.4 - - - - - - -
27/07:30am 9.1 NW 5 7 - - 1.4 - - - - - - -
27/07:00am 9.1 NNW 4 6 - - 1.4 - - - - - - -
27/06:30am 8.7 N 5 6 - - 1.2 - - - - - - -
27/06:00am 8.2 N 4 5 - - 1.2 - - - - - - -
27/05:30am 8.2 N 4 5 - - 1.2 - - - - - - -
27/05:00am 5.9 N 4 5 - - 1.2 - - - - - - -
27/04:30am 7.7 N 5 6 - - 1.2 - - - - - - -
27/04:00am 7.6 N 5 6 - - 1.2 - - - - - - -
27/03:30am 8.4 N 4 5 - - 1.2 - - - - - - -
27/03:00am 7.9 NNW 2 3 - - 1.2 - - - - - - -
27/02:30am 7.2 WNW 2 3 - - 1.2 - - - - - - -
27/02:00am 7.9 NNW 4 4 - - 1.2 - - - - - - -
27/01:30am 8.4 N 5 6 - - 1.2 - - - - - - -
27/01:00am 8.2 N 6 6 - - 1.2 - - - - - - -
27/12:30am 8.0 N 5 5 - - 1.2 - - - - - - -
27/12:00am 8.3 N 4 5 - - 1.2 Recent precip. - - - - - -
 
Date/Time
CST
Temp
°C
Wind Pressure Rain since
9am
mm
Weather Cloud Vis
km
Sea
Height
m
Swell
Dir  Spd
kts
Gust
kts
hPa Trend Height
m
Period
s
Dir
26/11:30pm 8.1 N 4 4 - - 1.2 - - - - - - -
26/11:00pm 7.6 N 4 5 - - 1.0 - - - - - - -
26/10:30pm 7.6 N 5 5 - - 1.0 - - - - - - -
26/10:00pm 7.7 N 4 5 - - 1.0 - - - - - - -
26/09:30pm 8.8 N 5 7 - - 1.0 - - - - - - -
26/09:00pm 8.8 NNE 3 3 - - 1.0 - - - - - - -
26/08:30pm 8.6 ENE 2 3 - - 1.0 - - - - - - -
26/08:00pm 8.7 NE 1 1 - - 1.0 - - - - - - -
26/07:30pm 9.6 E 2 3 - - 1.0 - - - - - - -
26/07:00pm 9.9 ENE 2 3 - - 1.0 - - - - - - -
26/06:30pm 10.0 ENE 2 2 - - 1.0 - - - - - - -
26/06:00pm 10.3 ENE 1 3 - - 0.6 Recent precip. - - - - - -
26/05:30pm 10.4 ESE 3 4 - - 0.4 - - - - - - -
26/05:00pm 10.4 E 4 6 - - 0.4 - - - - - - -
26/04:30pm 11.1 E 6 7 - - 0.4 - - - - - - -
26/04:00pm 11.4 ESE 5 7 - - 0.4 - - - - - - -
26/03:30pm 12.2 ESE 5 7 - - 0.4 - - - - - - -
26/03:00pm 12.1 SSE 2 3 - - 0.2 Rain - - - - - -
26/02:30pm 12.9 S 3 4 - - 0.0 - - - - - - -
26/02:00pm 13.3 S 2 5 - - 0.0 - - - - - - -
26/01:30pm 13.3 S 3 5 - - 0.0 - - - - - - -
26/01:00pm 12.3 SSE 5 7 - - 0.0 - - - - - - -
26/12:30pm 13.2 SE 4 6 - - 0.0 - - - - - - -
26/12:00pm 13.1 NW 2 3 - - 0.0 - - - - - - -
26/11:30am 11.8 S 2 4 - - 0.0 - - - - - - -
26/11:00am 11.6 S 3 4 - - 0.0 - - - - - - -
26/10:30am 11.9 S 4 5 - - 0.0 - - - - - - -
26/10:00am 10.7 SE 4 5 - - 0.0 - - - - - - -
26/09:30am 9.4 S 5 5 - - 0.0 - - - - - - -
26/09:00am 7.9 S 4 5 - - 0.2 - - - - - - -
26/08:30am 5.8 S 4 5 - - 0.2 - - - - - - -
26/08:00am 6.3 SSW 1 2 - - 0.2 - - - - - - -
26/07:30am 5.2 SW 3 4 - - 0.2 - - - - - - -
26/07:00am 6.6 W 3 3 - - 0.2 - - - - - - -
26/06:30am 6.6 W 3 4 - - 0.2 - - - - - - -
26/06:00am 6.7 NW 1 2 - - 0.2 - - - - - - -
26/05:30am 5.5 NW 3 3 - - 0.2 - - - - - - -
26/05:00am 5.3 NW 3 3 - - 0.2 - - - - - - -
26/04:30am 5.9 WNW 4 6 - - 0.2 - - - - - - -
26/04:00am 6.8 CALM 0 0 - - 0.2 - - - - - - -
26/03:30am 7.8 S 3 4 - - 0.0 - - - - - - -
26/03:00am 7.7 SSW 3 3 - - 0.0 - - - - - - -
26/02:30am 7.0 SSW 3 4 - - 0.0 - - - - - - -
26/02:00am 7.4 WSW 2 3 - - 0.0 - - - - - - -
26/01:30am 7.5 WSW 2 2 - - 0.0 - - - - - - -
26/01:00am 7.9 WSW 3 4 - - 0.0 - - - - - - -
26/12:30am 8.6 W 6 7 - - 0.0 - - - - - - -
26/12:00am 8.8 WSW 5 7 - - 0.0 - - - - - - -
 
Date/Time
CST
Temp
°C
Wind Pressure Rain since
9am
mm
Weather Cloud Vis
km
Sea
Height
m
Swell
Dir  Spd
kts
Gust
kts
hPa Trend Height
m
Period
s
Dir
25/11:30pm 7.0 WNW 4 5 - - 0.0 - - - - - - -
25/11:00pm 7.3 W 5 6 - - 0.0 - - - - - - -
25/10:30pm 8.4 WSW 5 6 - - 0.0 - - - - - - -
25/10:00pm 8.4 WSW 6 7 - - 0.0 - - - - - - -
25/09:30pm 8.7 WSW 6 8 - - 0.0 - - - - - - -
25/09:00pm 8.6 W 8 10 - - 0.0 - - - - - - -
25/08:30pm 7.4 WSW 7 8 - - 0.0 - - - - - - -
25/08:00pm 7.8 WSW 6 7 - - 0.0 - - - - - - -
25/07:30pm 7.2 W 7 7 - - 0.0 - - - - - - -
25/07:00pm 7.6 WNW 8 9 - - 0.0 - - - - - - -
25/06:30pm 7.8 W 6 8 - - 0.0 - - - - - - -
25/06:00pm 8.0 NW 6 7 - - 0.0 - - - - - - -
25/05:30pm 8.7 NW 5 6 - - 0.0 - - - - - - -
25/05:00pm 10.8 WSW 7 9 - - 0.0 - - - - - - -
25/04:30pm 11.1 W 12 17 - - 0.0 - - - - - - -
25/04:00pm 12.1 W 7 10 - - 0.0 - - - - - - -
25/03:30pm 12.7 WSW 8 12 - - 0.0 - - - - - - -
25/03:00pm 12.2 WSW 8 10 - - 0.0 - - - - - - -
25/02:34pm 10.9 WSW 15 27 - - 0.0 - - - - - - -
25/02:30pm 11.7 WSW 14 27 - - 0.0 - - - - - - -
25/02:00pm 12.7 WSW 10 13 - - 0.0 - - - - - - -
25/01:30pm 13.7 W 11 14 - - 0.0 - - - - - - -
25/01:00pm 13.3 W 13 17 - - 0.0 - - - - - - -
25/12:30pm 13.9 WSW 12 16 - - 0.0 - - - - - - -
25/12:00pm 13.7 WSW 11 15 - - 0.0 - - - - - - -
25/11:30am 13.1 WSW 10 14 - - 0.0 - - - - - - -
25/11:00am 12.7 WSW 11 16 - - 0.0 - - - - - - -
25/10:30am 12.2 WSW 9 14 - - 0.0 - - - - - - -
25/10:00am 11.6 WSW 7 11 - - 0.0 - - - - - - -
25/09:30am 10.7 W 6 7 - - 0.0 - - - - - - -
25/09:00am 9.1 WNW 4 6 - - 0.4 - - - - - - -
25/08:30am 7.9 W 5 6 - - 0.4 - - - - - - -
25/08:00am 6.5 WNW 4 6 - - 0.4 - - - - - - -
25/07:30am 7.6 W 4 5 - - 0.2 - - - - - - -
25/07:00am 8.5 W 6 9 - - 0.2 - - - - - - -
25/06:30am 6.9 W 6 7 - - 0.2 - - - - - - -
25/06:00am 7.5 W 5 7 - - 0.2 Recent precip. - - - - - -
25/05:30am 5.4 WNW 7 8 - - 0.0 - - - - - - -
25/05:00am 4.8 WNW 5 6 - - 0.0 - - - - - - -
25/04:30am 3.5 WNW 4 5 - - 0.0 - - - - - - -
25/04:00am 5.0 NW 3 5 - - 0.0 - - - - - - -
25/03:30am 5.6 WNW 3 4 - - 0.0 - - - - - - -
25/03:00am 3.9 N 4 5 - - 0.0 - - - - - - -

Other Formats:

Comma delimited format used in spreadsheet applications
http://www.bom.gov.au/fwo/IDS60701/IDS60701.94807.axf

JavaScript Object Notation format (JSON) in row-major order
http://www.bom.gov.au/fwo/IDS60701/IDS60701.94807.json